createdAt,value
2023-05-14T00:01:56.133Z,71.97
2023-05-14T00:04:28.422Z,72.16
2023-05-14T00:07:01.090Z,72.36
2023-05-14T00:09:33.270Z,72.57
2023-05-14T00:12:08.466Z,72.81
2023-05-14T00:14:40.835Z,73.05
2023-05-14T00:17:13.097Z,73.18
2023-05-14T00:19:45.291Z,73.26
2023-05-14T00:22:17.829Z,73.27
2023-05-14T00:24:49.979Z,73.32
2023-05-14T00:27:24.776Z,73.99
2023-05-14T00:29:56.926Z,74.23
2023-05-14T00:32:29.448Z,74.21
2023-05-14T00:35:03.269Z,74.25
2023-05-14T00:37:36.554Z,74.27
2023-05-14T00:40:13.123Z,74.25
2023-05-14T00:42:47.978Z,74.33
2023-05-14T00:45:20.183Z,74.44
2023-05-14T00:47:52.867Z,74.53
2023-05-14T00:50:26.346Z,74.62
2023-05-14T00:52:58.758Z,74.70
2023-05-14T00:55:32.470Z,74.94
2023-05-14T00:58:11.899Z,74.94
2023-05-14T01:00:45.418Z,75.06
2023-05-14T01:03:17.761Z,75.04
2023-05-14T01:06:02.993Z,75.21
2023-05-14T01:08:48.663Z,75.37
2023-05-14T01:11:33.758Z,75.45
2023-05-14T01:14:24.339Z,75.65
2023-05-14T01:17:02.510Z,75.88
2023-05-14T01:19:43.200Z,75.89
2023-05-14T01:22:18.227Z,75.90
2023-05-14T01:24:50.489Z,76.00
2023-05-14T01:27:33.197Z,76.09
2023-05-14T01:30:18.096Z,76.24
2023-05-14T01:33:02.201Z,76.34
2023-05-14T01:35:35.605Z,76.41
2023-05-14T01:38:15.008Z,76.59
2023-05-14T01:40:50.803Z,76.78
2023-05-14T01:43:23.956Z,76.85
2023-05-14T01:45:56.378Z,76.97
2023-05-14T01:48:30.113Z,76.85
2023-05-14T01:51:02.745Z,76.93
2023-05-14T01:53:37.627Z,77.01
2023-05-14T01:56:10.367Z,77.13
2023-05-14T01:58:42.578Z,77.24
2023-05-14T02:01:14.825Z,77.43
2023-05-14T02:03:47.220Z,77.46
2023-05-14T02:06:19.460Z,77.49
2023-05-14T02:08:54.311Z,77.47
2023-05-14T02:11:26.548Z,77.53
2023-05-14T02:13:58.758Z,77.44
2023-05-14T02:16:31.085Z,77.48
2023-05-14T02:19:03.497Z,77.52
2023-05-14T02:21:35.898Z,77.65
2023-05-14T02:24:10.868Z,77.60
2023-05-14T02:26:43.131Z,78.07
2023-05-14T02:29:15.356Z,78.38
2023-05-14T02:31:47.752Z,78.46
2023-05-14T02:34:20.063Z,78.46
2023-05-14T02:36:52.288Z,78.58
2023-05-14T02:39:27.134Z,78.65
2023-05-14T02:41:59.314Z,78.81
2023-05-14T02:44:31.936Z,78.99
2023-05-14T02:47:04.232Z,79.04
2023-05-14T02:49:36.553Z,79.10
2023-05-14T02:52:09.294Z,79.15
2023-05-14T02:54:44.097Z,79.15
2023-05-14T02:57:16.485Z,79.24
2023-05-14T02:59:48.685Z,79.28
2023-05-14T03:02:21.250Z,79.39
2023-05-14T03:04:53.931Z,79.49
2023-05-14T03:07:26.207Z,79.70
2023-05-14T03:10:00.968Z,79.73
2023-05-14T03:12:33.332Z,79.89
2023-05-14T03:15:05.539Z,79.94
2023-05-14T03:17:37.769Z,80.12
2023-05-14T03:20:11.358Z,80.17
2023-05-14T03:22:43.688Z,80.32
2023-05-14T03:25:18.467Z,80.42
2023-05-14T03:27:50.741Z,80.53
2023-05-14T03:30:23.296Z,80.68
2023-05-14T03:32:55.793Z,80.84
2023-05-14T03:35:28.112Z,80.80
2023-05-14T03:38:00.444Z,80.87
2023-05-14T03:40:35.369Z,80.92
2023-05-14T03:43:07.651Z,81.07
2023-05-14T03:45:40.178Z,80.99
2023-05-14T03:48:12.519Z,80.89
2023-05-14T03:50:44.879Z,80.96
2023-05-14T03:53:17.213Z,81.07
2023-05-14T03:55:52.030Z,81.14
2023-05-14T03:58:24.203Z,81.17
2023-05-14T04:00:56.585Z,81.23
2023-05-14T04:03:28.965Z,81.25
2023-05-14T04:06:01.243Z,81.23
2023-05-14T04:08:33.433Z,81.40
2023-05-14T04:11:08.503Z,81.59
2023-05-14T04:13:40.808Z,81.45
2023-05-14T04:16:13.010Z,81.51
2023-05-14T04:18:45.387Z,81.44
2023-05-14T04:21:17.697Z,81.47
2023-05-14T04:23:50.914Z,81.50
2023-05-14T04:26:25.772Z,81.66
2023-05-14T04:28:58.453Z,82.01
2023-05-14T04:31:30.760Z,81.86
2023-05-14T04:34:02.991Z,81.82
2023-05-14T04:36:35.283Z,81.73
2023-05-14T04:39:07.949Z,81.67
2023-05-14T04:41:43.111Z,81.69
2023-05-14T04:44:17.550Z,81.58
2023-05-14T04:46:49.776Z,81.49
2023-05-14T04:49:22.001Z,81.54
2023-05-14T04:51:54.296Z,81.53
2023-05-14T04:54:26.666Z,81.42
2023-05-14T04:57:03.378Z,81.42
2023-05-14T04:59:35.660Z,81.32
2023-05-14T05:02:08.192Z,81.28
2023-05-14T05:04:40.588Z,80.90
2023-05-14T05:07:13.399Z,80.82
2023-05-14T05:09:46.607Z,80.71
2023-05-14T05:12:21.623Z,80.46
2023-05-14T05:14:53.847Z,80.17
2023-05-14T05:17:26.430Z,79.70
2023-05-14T05:19:58.678Z,79.44
2023-05-14T05:22:31.098Z,79.37
2023-05-14T05:25:05.714Z,79.19
2023-05-14T05:27:40.553Z,78.97
2023-05-14T05:30:13.879Z,79.05
2023-05-14T05:32:46.253Z,78.99
2023-05-14T05:35:18.537Z,79.00
2023-05-14T05:37:50.784Z,78.93
2023-05-14T05:40:23.149Z,78.82
2023-05-14T05:42:58.065Z,78.43
2023-05-14T05:45:30.314Z,78.41
2023-05-14T05:48:02.548Z,78.03
2023-05-14T05:50:35.011Z,77.82
2023-05-14T05:53:07.220Z,77.84
2023-05-14T05:55:39.458Z,77.60
2023-05-14T05:58:15.899Z,77.75
2023-05-14T06:00:48.106Z,77.60
2023-05-14T06:03:20.548Z,77.63
2023-05-14T06:05:52.990Z,77.58
2023-05-14T06:08:25.320Z,77.44
2023-05-14T06:10:57.583Z,77.26
2023-05-14T06:13:32.391Z,76.79
2023-05-14T06:16:04.604Z,76.82
2023-05-14T06:18:36.861Z,76.65
2023-05-14T06:21:09.251Z,77.03
2023-05-14T06:23:41.892Z,76.68
2023-05-14T06:26:14.147Z,76.78
2023-05-14T06:28:48.994Z,76.97
2023-05-14T06:31:21.687Z,76.09
2023-05-14T06:33:53.982Z,75.06
2023-05-14T06:36:26.250Z,74.07
2023-05-14T06:38:58.535Z,73.75
2023-05-14T06:41:30.710Z,73.34
2023-05-14T06:44:05.576Z,73.02
2023-05-14T06:46:37.954Z,72.85
2023-05-14T06:49:10.354Z,71.64
2023-05-14T06:51:42.749Z,70.57
2023-05-14T06:54:14.984Z,70.27
2023-05-14T06:56:47.284Z,69.79
2023-05-14T06:59:22.241Z,70.02
2023-05-14T07:01:54.597Z,69.75
2023-05-14T07:04:26.947Z,69.48
2023-05-14T07:06:59.433Z,69.59
2023-05-14T07:09:33.573Z,69.35
2023-05-14T07:12:05.770Z,69.09
2023-05-14T07:14:40.722Z,69.32
2023-05-14T07:17:13.020Z,68.75
2023-05-14T07:19:45.358Z,68.74
2023-05-14T07:22:17.584Z,68.02
2023-05-14T07:24:50.427Z,67.91
2023-05-14T07:27:22.749Z,68.63
2023-05-14T07:29:57.527Z,68.44
2023-05-14T07:32:32.990Z,68.52
2023-05-14T07:35:05.681Z,68.75
2023-05-14T07:37:38.413Z,68.70
2023-05-14T07:40:12.074Z,68.63
2023-05-14T07:42:44.251Z,68.77
2023-05-14T07:45:19.285Z,68.85
2023-05-14T07:47:52.375Z,68.64
2023-05-14T07:50:25.111Z,68.83
2023-05-14T07:52:57.423Z,68.88
2023-05-14T07:55:29.831Z,68.64
2023-05-14T07:58:02.118Z,68.40
2023-05-14T08:00:36.901Z,67.94
2023-05-14T08:03:09.241Z,67.18
2023-05-14T08:05:41.908Z,67.23
2023-05-14T08:08:14.631Z,67.20
2023-05-14T08:10:46.867Z,66.20
2023-05-14T08:13:19.204Z,66.44
2023-05-14T08:15:54.379Z,66.21
2023-05-14T08:18:26.759Z,66.37
2023-05-14T08:20:59.045Z,66.21
2023-05-14T08:23:31.812Z,66.35
2023-05-14T08:26:04.012Z,67.29
2023-05-14T08:28:36.235Z,67.70
2023-05-14T08:31:11.141Z,67.46
2023-05-14T08:33:43.353Z,67.47
2023-05-14T08:36:15.645Z,66.99
2023-05-14T08:38:48.709Z,66.46
2023-05-14T08:41:21.889Z,65.90
2023-05-14T08:44:07.312Z,65.95
2023-05-14T08:46:44.151Z,65.47
2023-05-14T08:49:28.959Z,65.32
2023-05-14T08:52:01.355Z,64.44
2023-05-14T08:54:33.956Z,64.18
2023-05-14T08:57:08.443Z,63.86
2023-05-14T08:59:41.347Z,63.50
2023-05-14T09:02:20.200Z,63.90
2023-05-14T09:04:53.531Z,63.51
2023-05-14T09:07:29.777Z,62.90
2023-05-14T09:17:20.165Z,62.04
2023-05-14T09:19:55.922Z,61.90
2023-05-14T09:22:28.965Z,61.79
2023-05-14T09:28:22.966Z,62.44
2023-05-14T09:30:56.749Z,62.13
2023-05-14T09:33:33.119Z,61.96
2023-05-14T09:36:08.158Z,61.46
2023-05-14T09:38:43.290Z,61.96
2023-05-14T09:41:16.523Z,61.62
2023-05-14T09:43:48.987Z,60.36
2023-05-14T09:46:22.001Z,60.26
2023-05-14T09:48:54.933Z,60.48
2023-05-14T09:51:29.735Z,60.71
2023-05-14T09:54:02.583Z,59.48
2023-05-14T09:56:34.803Z,59.37
2023-05-14T09:59:08.016Z,59.12
2023-05-14T10:01:46.467Z,58.06
2023-05-14T10:04:19.502Z,58.02
2023-05-14T10:06:59.382Z,58.11
2023-05-14T10:09:34.298Z,58.59
2023-05-14T10:12:06.665Z,58.36
2023-05-14T10:14:45.202Z,57.99
2023-05-14T10:17:20.814Z,58.09
2023-05-14T10:19:59.755Z,57.49
2023-05-14T10:22:37.856Z,57.36
2023-05-14T10:25:11.708Z,56.46
2023-05-14T10:27:45.255Z,57.17
2023-05-14T10:30:17.864Z,57.46
2023-05-14T10:32:53.041Z,56.93
2023-05-14T10:35:27.425Z,56.26
2023-05-14T10:38:02.922Z,55.66
2023-05-14T10:40:35.752Z,54.41
2023-05-14T10:43:11.433Z,54.42
2023-05-14T10:45:46.431Z,54.50
2023-05-14T10:48:19.835Z,53.55
2023-05-14T10:50:54.009Z,52.77
2023-05-14T10:53:37.374Z,52.85
2023-05-14T10:56:12.471Z,53.12
2023-05-14T10:58:47.342Z,53.30
2023-05-14T11:01:20.256Z,52.88
2023-05-14T11:03:57.702Z,52.80
2023-05-14T11:06:34.324Z,52.09
2023-05-14T11:09:11.799Z,51.77
2023-05-14T11:11:44.195Z,50.77
2023-05-14T11:14:17.045Z,51.09
2023-05-14T11:16:51.132Z,49.97
2023-05-14T11:19:26.285Z,48.70
2023-05-14T11:21:58.519Z,49.36
2023-05-14T11:24:33.264Z,49.71
2023-05-14T11:27:06.279Z,48.81
2023-05-14T11:29:38.878Z,48.46
2023-05-14T11:32:11.696Z,47.88
2023-05-14T11:34:44.966Z,46.18
2023-05-14T11:37:19.628Z,46.13
2023-05-14T11:39:56.737Z,46.20
2023-05-14T11:42:29.063Z,45.82
2023-05-14T11:45:01.538Z,46.16
2023-05-14T11:47:35.523Z,46.54
2023-05-14T11:50:09.388Z,46.00
2023-05-14T11:52:46.525Z,45.86
2023-05-14T11:55:22.001Z,46.71
2023-05-14T11:57:55.074Z,45.44
2023-05-14T12:00:27.336Z,47.49
2023-05-14T12:03:02.777Z,48.64
2023-05-14T12:05:35.026Z,48.67
2023-05-14T12:08:07.429Z,48.63
2023-05-14T12:10:48.829Z,48.22
2023-05-14T12:13:21.189Z,48.84
2023-05-14T12:15:59.438Z,48.18
2023-05-14T12:18:33.872Z,47.82
2023-05-14T12:21:12.205Z,48.02
2023-05-14T12:23:44.408Z,47.83
2023-05-14T12:26:19.135Z,48.05
2023-05-14T12:28:52.200Z,48.61
2023-05-14T12:31:32.667Z,48.29
2023-05-14T12:34:04.956Z,47.46
2023-05-14T12:36:37.114Z,47.26
2023-05-14T12:39:11.680Z,47.14
2023-05-14T12:41:46.843Z,47.07
2023-05-14T12:44:19.049Z,47.14
2023-05-14T12:46:51.569Z,46.85
2023-05-14T12:49:23.874Z,46.30
2023-05-14T12:52:07.729Z,45.34
2023-05-14T12:54:48.189Z,44.44
2023-05-14T12:57:23.000Z,45.51
2023-05-14T12:59:55.177Z,45.08
2023-05-14T13:02:27.543Z,44.96
2023-05-14T13:05:03.859Z,45.06
2023-05-14T13:07:37.723Z,44.56
2023-05-14T13:10:11.912Z,44.56
2023-05-14T13:12:47.916Z,44.89
2023-05-14T13:15:23.166Z,44.64
2023-05-14T13:17:55.646Z,44.76
2023-05-14T13:20:28.095Z,44.10
2023-05-14T13:23:02.253Z,43.13
2023-05-14T13:25:34.620Z,43.47
2023-05-14T13:28:09.836Z,42.42
2023-05-14T13:30:42.021Z,42.47
2023-05-14T13:33:14.404Z,41.71
2023-05-14T13:35:46.600Z,40.74
2023-05-14T13:38:18.845Z,39.47
2023-05-14T13:40:51.020Z,39.26
2023-05-14T13:43:25.794Z,39.62
2023-05-14T13:45:58.101Z,39.83
2023-05-14T13:48:31.188Z,39.83
2023-05-14T13:51:03.924Z,39.21
2023-05-14T13:53:36.162Z,39.82
2023-05-14T13:56:09.050Z,39.74
2023-05-14T13:58:44.068Z,39.04
2023-05-14T14:01:16.295Z,38.46
2023-05-14T14:03:48.706Z,37.95
2023-05-14T14:06:20.952Z,38.40
2023-05-14T14:08:53.165Z,37.36
2023-05-14T14:11:25.733Z,38.20
2023-05-14T14:14:02.411Z,38.63
2023-05-14T14:16:34.688Z,37.71
2023-05-14T14:19:07.078Z,37.89
2023-05-14T14:21:39.943Z,36.85
2023-05-14T14:24:13.283Z,37.27
2023-05-14T14:26:45.493Z,35.94
2023-05-14T14:29:21.182Z,35.26
2023-05-14T14:31:53.568Z,36.04
2023-05-14T14:34:25.811Z,35.64
2023-05-14T14:36:58.019Z,35.25
2023-05-14T14:39:30.520Z,35.90
2023-05-14T14:42:02.704Z,36.00
2023-05-14T14:44:37.494Z,36.35
2023-05-14T14:47:10.204Z,35.62
2023-05-14T14:49:42.544Z,35.41
2023-05-14T14:52:14.978Z,35.07
2023-05-14T14:54:47.153Z,34.60
2023-05-14T14:57:19.367Z,33.70
2023-05-14T14:59:54.393Z,33.67
2023-05-14T15:02:26.737Z,34.23
2023-05-14T15:04:59.021Z,34.90
2023-05-14T15:07:33.182Z,35.27
2023-05-14T15:10:08.635Z,35.51
2023-05-14T15:12:40.866Z,35.65
2023-05-14T15:15:16.254Z,35.74
2023-05-14T15:17:48.649Z,35.88
2023-05-14T15:20:21.154Z,36.37
2023-05-14T15:22:56.134Z,37.07
2023-05-14T15:25:28.863Z,36.94
2023-05-14T15:28:03.008Z,37.13
2023-05-14T15:30:38.173Z,37.09
2023-05-14T15:33:12.382Z,37.05
2023-05-14T15:35:44.601Z,36.71
2023-05-14T15:38:16.926Z,36.51
2023-05-14T15:40:50.966Z,36.76
2023-05-14T15:43:23.318Z,36.96
2023-05-14T15:45:58.144Z,36.32
2023-05-14T15:48:30.536Z,37.02
2023-05-14T15:51:03.098Z,37.61
2023-05-14T15:53:35.279Z,37.81
2023-05-14T15:56:07.905Z,38.11
2023-05-14T15:58:40.192Z,38.70
2023-05-14T16:01:15.112Z,39.58
2023-05-14T16:03:47.379Z,40.12
2023-05-14T16:06:19.911Z,40.17
2023-05-14T16:08:52.358Z,40.71
2023-05-14T16:11:27.304Z,41.71
2023-05-14T16:13:59.496Z,40.00
2023-05-14T16:16:39.555Z,39.66
2023-05-14T16:19:11.951Z,40.13
2023-05-14T16:21:44.486Z,41.08
2023-05-14T16:24:16.711Z,42.52
2023-05-14T16:26:49.113Z,43.91
2023-05-14T16:29:21.360Z,44.88
2023-05-14T16:31:56.292Z,45.06
2023-05-14T16:34:28.504Z,45.84
2023-05-14T16:37:00.820Z,46.60
2023-05-14T16:39:33.126Z,46.95
2023-05-14T16:42:05.407Z,46.43
2023-05-14T16:44:37.692Z,45.51
2023-05-14T16:47:13.274Z,45.47
2023-05-14T16:49:45.786Z,45.00
2023-05-14T16:52:18.028Z,44.96
2023-05-14T16:54:50.256Z,44.54
2023-05-14T16:57:22.461Z,45.29
2023-05-14T16:59:54.879Z,45.97
2023-05-14T17:02:29.696Z,46.83
2023-05-14T17:05:01.949Z,47.72
2023-05-14T17:07:34.268Z,48.40
2023-05-14T17:10:06.483Z,49.38
2023-05-14T17:12:38.724Z,50.24
2023-05-14T17:15:15.046Z,51.35
2023-05-14T17:17:50.051Z,52.88
2023-05-14T17:20:22.342Z,54.14
2023-05-14T17:22:56.752Z,55.39
2023-05-14T17:25:29.136Z,56.46
2023-05-14T17:28:01.532Z,57.45
2023-05-14T17:30:34.148Z,58.38
2023-05-14T17:33:09.021Z,58.55
2023-05-14T17:35:43.951Z,58.86
2023-05-14T17:38:17.267Z,58.99
2023-05-14T17:40:49.489Z,59.26
2023-05-14T17:43:21.744Z,59.60
2023-05-14T17:45:54.897Z,60.01
2023-05-14T17:48:30.103Z,60.55
2023-05-14T17:51:02.390Z,61.04
2023-05-14T17:53:34.753Z,61.57
2023-05-14T17:56:07.331Z,61.98
2023-05-14T17:58:39.881Z,62.42
2023-05-14T18:01:12.135Z,62.95
2023-05-14T18:03:47.197Z,63.60
2023-05-14T18:06:22.487Z,64.06
2023-05-14T18:08:54.841Z,64.44
2023-05-14T18:11:32.819Z,65.09
2023-05-14T18:14:05.199Z,65.69
2023-05-14T18:16:37.527Z,66.43
2023-05-14T18:19:12.567Z,66.71
2023-05-14T18:21:46.760Z,67.32
2023-05-14T18:24:18.933Z,67.56
2023-05-14T18:26:51.417Z,67.96
2023-05-14T18:29:23.913Z,68.15
2023-05-14T18:31:56.111Z,68.04
2023-05-14T18:34:30.931Z,68.24
2023-05-14T18:37:03.353Z,67.90
2023-05-14T18:39:35.786Z,68.20
2023-05-14T18:42:08.229Z,67.54
2023-05-14T18:44:44.352Z,67.60
2023-05-14T18:47:16.702Z,67.97
2023-05-14T18:49:55.027Z,68.20
2023-05-14T18:52:27.343Z,68.25
2023-05-14T18:54:59.715Z,68.21
2023-05-14T18:57:33.090Z,68.00
2023-05-14T19:00:05.491Z,68.05
2023-05-14T19:02:37.861Z,68.12
2023-05-14T19:05:13.376Z,68.57
2023-05-14T19:07:48.207Z,68.73
2023-05-14T19:10:20.501Z,68.90
2023-05-14T19:12:52.690Z,69.17
2023-05-14T19:15:25.042Z,69.23
2023-05-14T19:17:57.633Z,69.42
2023-05-14T19:20:32.542Z,69.19
2023-05-14T19:23:04.741Z,69.13
2023-05-14T19:25:37.218Z,69.36
2023-05-14T19:28:09.953Z,69.99
2023-05-14T19:30:42.225Z,70.89
2023-05-14T19:33:14.501Z,71.64
2023-05-14T19:35:49.559Z,72.16
2023-05-14T19:38:22.174Z,72.02
2023-05-14T19:40:56.986Z,71.70
2023-05-14T19:43:29.618Z,71.66
2023-05-14T19:46:01.908Z,71.36
2023-05-14T19:48:34.499Z,71.10
2023-05-14T19:51:09.318Z,71.17
2023-05-14T19:53:41.563Z,71.35
2023-05-14T19:56:13.905Z,71.49
2023-05-14T19:58:46.371Z,71.51
2023-05-14T20:01:19.418Z,71.66
2023-05-14T20:03:51.728Z,72.00
2023-05-14T20:06:27.152Z,72.50
2023-05-14T20:09:01.539Z,72.90
2023-05-14T20:11:33.788Z,73.24
2023-05-14T20:14:05.987Z,73.57
2023-05-14T20:16:38.358Z,73.84
2023-05-14T20:19:14.380Z,74.09
2023-05-14T20:21:49.185Z,74.29
2023-05-14T20:24:21.473Z,74.54
2023-05-14T20:26:54.103Z,74.94
2023-05-14T20:29:29.051Z,75.74
2023-05-14T20:32:01.252Z,75.96
2023-05-14T20:34:33.467Z,75.84
2023-05-14T20:37:08.934Z,76.10
2023-05-14T20:39:41.243Z,76.18
2023-05-14T20:42:13.537Z,76.40
2023-05-14T20:44:45.769Z,76.43
2023-05-14T20:47:21.415Z,76.51
2023-05-14T20:49:54.329Z,76.50
2023-05-14T20:52:29.479Z,76.54
2023-05-14T20:55:02.440Z,76.70
2023-05-14T20:57:34.734Z,76.84
2023-05-14T21:00:10.140Z,76.76
2023-05-14T21:02:42.642Z,76.77
2023-05-14T21:05:15.733Z,76.81
2023-05-14T21:07:52.009Z,76.80
2023-05-14T21:10:24.390Z,77.06
2023-05-14T21:12:56.823Z,77.36
2023-05-14T21:15:30.761Z,77.00
2023-05-14T21:18:03.283Z,77.03
2023-05-14T21:20:35.497Z,76.91
2023-05-14T21:23:10.312Z,77.04
2023-05-14T21:25:42.579Z,77.13
2023-05-14T21:28:15.964Z,77.29
2023-05-14T21:30:48.175Z,77.32
2023-05-14T21:33:20.463Z,77.46
2023-05-14T21:35:52.715Z,77.51
2023-05-14T21:38:27.793Z,77.60
2023-05-14T21:41:00.084Z,78.13
2023-05-14T21:43:32.512Z,78.26
2023-05-14T21:46:04.827Z,78.22
2023-05-14T21:48:37.295Z,78.66
2023-05-14T21:51:10.253Z,78.72
2023-05-14T21:53:45.082Z,79.06
2023-05-14T21:56:17.328Z,79.33
2023-05-14T21:58:51.683Z,79.07
2023-05-14T22:01:23.944Z,79.00
2023-05-14T22:03:57.685Z,79.32
2023-05-14T22:06:30.323Z,79.28
2023-05-14T22:09:08.267Z,79.42
2023-05-14T22:11:40.514Z,79.79
2023-05-14T22:14:12.727Z,79.94
2023-05-14T22:16:44.985Z,80.19
2023-05-14T22:19:19.665Z,80.30
2023-05-14T22:21:51.909Z,80.32
2023-05-14T22:24:26.726Z,80.08
2023-05-14T22:26:59.043Z,80.01
2023-05-14T22:29:31.297Z,80.47
2023-05-14T22:32:03.696Z,80.46
2023-05-14T22:34:35.888Z,80.35
2023-05-14T22:37:08.875Z,80.49
2023-05-14T22:39:43.850Z,79.95
2023-05-14T22:42:16.032Z,79.76
2023-05-14T22:44:48.211Z,80.13
2023-05-14T22:47:20.626Z,80.59
2023-05-14T22:49:52.954Z,80.71
2023-05-14T22:52:25.170Z,81.15
2023-05-14T22:54:59.984Z,81.23
2023-05-14T22:57:32.260Z,81.38
2023-05-14T23:00:04.703Z,81.57
2023-05-14T23:02:36.981Z,81.95
2023-05-14T23:05:10.268Z,81.97
2023-05-14T23:07:42.664Z,82.21
2023-05-14T23:10:17.803Z,82.19
2023-05-14T23:12:50.404Z,82.26
2023-05-14T23:15:22.709Z,82.39
2023-05-14T23:17:55.119Z,82.40
2023-05-14T23:20:27.391Z,82.39
2023-05-14T23:22:59.578Z,82.40
2023-05-14T23:25:35.673Z,82.84
2023-05-14T23:28:08.027Z,82.44
2023-05-14T23:30:40.393Z,82.38
2023-05-14T23:33:12.790Z,82.36
2023-05-14T23:35:45.312Z,82.47
2023-05-14T23:38:18.050Z,82.56
2023-05-14T23:40:52.957Z,82.94
2023-05-14T23:43:25.224Z,82.86
2023-05-14T23:45:57.661Z,82.90
2023-05-14T23:48:30.324Z,82.86
2023-05-14T23:51:02.525Z,82.70
2023-05-14T23:53:34.763Z,82.12
2023-05-14T23:56:10.142Z,81.90
2023-05-14T23:58:42.524Z,81.75
